Terminal Aerodrome Forecast
Issued by NWS Chicago, IL

Home | Current Version | Previous Version | Text Only | Print | Product List | Glossary Off
Versions: 1 2 3 4 5 6 7 8 9 10 11 12 13 14 15 16 17 18 19 20 21

358
FTUS43 KLOT 210901 AAA
TAFRFD
TAF AMD
KRFD 210901Z 2109/2206 22012KT P6SM BKN150
     FM211300 30016G25KT P6SM BKN045
     FM212200 32010KT P6SM SCT050=

USA.gov is the U.S. government's official web portal to all federal, state and local government web resources and services.